Time;durP1;ratioP1;P1;durP2;ratioP2;P2;SDS_P1;SDS_P2;PMS_P1;PMS_P2;Temp;Humidity;BMP_temperature;BMP_pressure;BME280_temperature;BME280_humidity;BME280_pressure;Samples;Min_cycle;Max_cycle;Signal;HPM_P1;HPM_P2
2022/09/03 00:02:11;;;;;;;;;2.00;2.00;;;;;23.19;46.99;101531.46;111039;1262;13130;-81
2022/09/03 00:04:39;;;;;;;;;3.00;3.00;;;;;23.19;46.97;101532.14;111056;1262;13147;-80
2022/09/03 00:07:07;;;;;;;;;2.33;2.33;;;;;23.19;46.93;101528.70;110988;1262;13108;-81
2022/09/03 00:09:34;;;;;;;;;1.33;1.33;;;;;23.19;47.00;101528.70;111011;1261;13184;-81
2022/09/03 00:12:01;;;;;;;;;2.00;2.00;;;;;23.19;46.97;101525.81;111062;1262;12823;-79
2022/09/03 00:14:28;;;;;;;;;2.00;2.00;;;;;23.18;46.88;101525.38;111102;1262;13161;-81
2022/09/03 00:16:56;;;;;;;;;1.67;1.67;;;;;23.18;46.86;101526.46;111043;1262;12887;-80
2022/09/03 00:19:23;;;;;;;;;2.00;2.00;;;;;23.19;46.90;101527.11;111027;1262;13355;-82
2022/09/03 00:21:50;;;;;;;;;2.00;1.00;;;;;23.17;46.83;101527.20;111043;1262;12992;-81
2022/09/03 00:24:17;;;;;;;;;1.00;1.00;;;;;23.19;46.81;101532.73;111056;1262;13027;-81
2022/09/03 00:26:45;;;;;;;;;3.00;2.00;;;;;23.18;46.83;101528.96;111048;1262;12820;-81
2022/09/03 00:29:12;;;;;;;;;2.00;2.00;;;;;23.19;46.77;101536.39;111084;1262;13082;-83
2022/09/03 00:31:41;;;;;;;;;2.00;2.00;;;;;23.18;46.75;101530.98;110971;1262;13180;-81
2022/09/03 00:34:08;;;;;;;;;1.33;1.33;;;;;23.18;46.80;101527.17;111058;1262;13549;-81
2022/09/03 00:36:36;;;;;;;;;1.33;1.33;;;;;23.19;46.77;101531.08;111015;1261;12938;-81
2022/09/03 00:39:06;;;;;;;;;2.00;2.00;;;;;23.19;46.79;101520.52;110964;1262;12955;-81
2022/09/03 00:41:33;;;;;;;;;2.00;2.00;;;;;23.18;46.77;101522.36;111086;1261;13203;-82
2022/09/03 00:44:00;;;;;;;;;1.00;1.00;;;;;23.19;46.85;101519.05;111081;1262;16813;-81
2022/09/03 00:46:28;;;;;;;;;2.00;2.00;;;;;23.20;46.73;101522.43;110998;1262;13119;-83
2022/09/03 00:48:55;;;;;;;;;3.00;2.00;;;;;23.20;46.68;101524.76;111052;1262;13186;-83
2022/09/03 00:51:26;;;;;;;;;2.00;2.00;;;;;23.19;46.77;101521.00;111032;1262;13190;-81
2022/09/03 00:53:54;;;;;;;;;1.00;1.00;;;;;23.19;46.74;101522.34;111088;1262;13983;-82
2022/09/03 00:56:21;;;;;;;;;1.50;1.50;;;;;23.19;46.80;101520.36;111048;1262;13147;-81
2022/09/03 00:58:49;;;;;;;;;2.00;1.33;;;;;23.18;46.82;101518.23;111009;1261;13187;-82
2022/09/03 01:01:17;;;;;;;;;1.67;1.67;;;;;23.18;46.80;101519.73;111074;1262;12978;-81
2022/09/03 01:03:44;;;;;;;;;2.00;2.00;;;;;23.18;46.79;101520.98;111065;1262;13004;-80
2022/09/03 01:06:11;;;;;;;;;1.67;1.67;;;;;23.18;46.86;101522.05;111000;1262;13206;-80
2022/09/03 01:08:40;;;;;;;;;3.00;2.00;;;;;23.19;46.81;101521.82;111019;1262;12684;-81
2022/09/03 01:11:09;;;;;;;;;2.00;2.00;;;;;23.18;46.75;101520.41;111034;1262;13249;-81
2022/09/03 01:13:37;;;;;;;;;1.50;1.50;;;;;23.16;46.79;101517.71;111034;1262;14980;-82
2022/09/03 01:16:04;;;;;;;;;2.00;2.00;;;;;23.17;46.84;101517.46;111049;1262;12907;-80
2022/09/03 01:18:32;;;;;;;;;2.00;2.00;;;;;23.17;46.79;101516.34;111097;1262;16790;-81
2022/09/03 01:21:00;;;;;;;;;2.00;2.00;;;;;23.18;46.75;101512.95;111140;1261;13044;-81
2022/09/03 01:23:27;;;;;;;;;1.00;1.00;;;;;23.17;46.80;101516.71;111021;1262;13120;-82
2022/09/03 01:25:56;;;;;;;;;2.00;2.00;;;;;23.17;46.78;101517.27;111046;1262;13213;-81
2022/09/03 01:28:23;;;;;;;;;1.67;1.67;;;;;23.17;46.84;101519.23;111059;1262;12708;-81
2022/09/03 01:30:51;;;;;;;;;2.00;2.00;;;;;23.17;46.80;101511.79;111054;1262;13085;-82
2022/09/03 01:33:18;;;;;;;;;2.00;2.00;;;;;23.18;46.72;101514.08;111030;1262;13066;-81
2022/09/03 01:35:45;;;;;;;;;2.00;2.00;;;;;23.18;46.67;101518.73;111044;1262;13131;-84
2022/09/03 01:38:12;;;;;;;;;1.00;1.00;;;;;23.18;46.62;101518.08;111094;1262;13173;-81
2022/09/03 01:40:40;;;;;;;;;1.50;1.50;;;;;23.18;46.66;101518.60;111010;1262;16582;-81
2022/09/03 01:43:07;;;;;;;;;2.00;2.00;;;;;23.18;46.57;101516.79;111074;1262;12953;-82
2022/09/03 01:45:34;;;;;;;;;2.00;1.33;;;;;23.18;46.56;101515.49;111074;1262;13266;-83
2022/09/03 01:48:02;;;;;;;;;2.00;2.00;;;;;23.19;46.53;101515.77;111043;1262;13101;-81
2022/09/03 01:50:32;;;;;;;;;2.00;2.00;;;;;23.18;46.55;101518.59;111105;1262;13105;-82
2022/09/03 01:53:00;;;;;;;;;1.67;1.67;;;;;23.18;46.52;101511.99;111056;1262;15700;-81
2022/09/03 01:55:27;;;;;;;;;1.00;1.00;;;;;23.19;46.62;101514.84;111062;1261;12776;-82
2022/09/03 01:57:56;;;;;;;;;2.00;2.00;;;;;23.19;46.60;101516.52;111042;1262;12895;-82
2022/09/03 02:00:23;;;;;;;;;1.00;1.00;;;;;23.18;46.50;101511.33;111054;1262;13174;-82
2022/09/03 02:02:51;;;;;;;;;1.00;1.00;;;;;23.19;46.56;101510.88;111093;1262;13268;-83
2022/09/03 02:05:18;;;;;;;;;1.33;1.33;;;;;23.18;46.65;101507.69;111083;1262;12708;-82
2022/09/03 02:07:45;;;;;;;;;1.00;1.00;;;;;23.18;46.60;101504.58;111087;1262;16555;-82
2022/09/03 02:10:12;;;;;;;;;2.00;2.00;;;;;23.17;46.47;101502.98;111086;1262;13160;-81
2022/09/03 02:12:41;;;;;;;;;1.00;1.00;;;;;23.18;46.53;101502.73;110980;1262;13132;-82
2022/09/03 02:15:09;;;;;;;;;1.00;1.00;;;;;23.17;46.59;101502.80;110992;1262;13069;-82
2022/09/03 02:17:36;;;;;;;;;1.00;1.00;;;;;23.17;46.52;101501.54;111082;1261;12859;-82
2022/09/03 02:20:03;;;;;;;;;2.00;2.00;;;;;23.18;46.49;101502.02;111099;1262;13068;-81
2022/09/03 02:22:31;;;;;;;;;1.00;1.00;;;;;23.17;46.53;101500.14;111057;1262;12923;-83
2022/09/03 02:24:58;;;;;;;;;1.00;1.00;;;;;23.17;46.57;101502.33;111100;1262;13190;-84
2022/09/03 02:27:25;;;;;;;;;1.00;1.00;;;;;23.17;46.56;101498.77;111063;1262;13083;-82
2022/09/03 02:29:53;;;;;;;;;1.00;1.00;;;;;23.17;46.49;101501.20;111027;1262;13240;-82
2022/09/03 02:32:20;;;;;;;;;2.00;2.00;;;;;23.16;46.55;101497.27;111111;1262;13148;-81
2022/09/03 02:34:47;;;;;;;;;1.00;1.00;;;;;23.17;46.51;101496.52;111045;1262;12623;-82
2022/09/03 02:37:15;;;;;;;;;1.00;1.00;;;;;23.16;46.48;101494.16;111092;1262;13126;-81
2022/09/03 02:39:42;;;;;;;;;1.00;1.00;;;;;23.16;46.46;101494.73;111024;1262;13145;-82
2022/09/03 02:42:09;;;;;;;;;2.00;2.00;;;;;23.16;46.55;101491.59;111098;1262;13041;-81
2022/09/03 02:44:36;;;;;;;;;1.00;1.00;;;;;23.16;46.35;101494.57;111132;1262;10564;-81
2022/09/03 02:47:04;;;;;;;;;2.00;2.00;;;;;23.15;46.43;101493.62;111066;1262;13989;-81
2022/09/03 02:49:31;;;;;;;;;1.33;1.33;;;;;23.15;46.51;101494.38;111036;1262;13273;-82
2022/09/03 02:51:59;;;;;;;;;1.00;1.00;;;;;23.15;46.49;101495.98;111053;1262;12663;-81
2022/09/03 02:54:26;;;;;;;;;1.00;1.00;;;;;23.15;46.49;101495.46;111041;1262;13310;-81
2022/09/03 02:56:54;;;;;;;;;2.00;2.00;;;;;23.16;46.42;101499.70;111004;1262;13120;-81
2022/09/03 02:59:22;;;;;;;;;1.00;1.00;;;;;23.16;46.39;101498.70;111057;1262;12988;-81
2022/09/03 03:01:50;;;;;;;;;1.00;1.00;;;;;23.17;46.42;101499.96;111064;1262;13159;-82
2022/09/03 03:04:17;;;;;;;;;2.00;2.00;;;;;23.16;46.35;101502.05;111055;1261;10411;-81
2022/09/03 03:06:44;;;;;;;;;2.00;2.00;;;;;23.15;46.36;101498.30;111070;1262;12865;-80
2022/09/03 03:09:12;;;;;;;;;1.00;1.00;;;;;23.15;46.37;101498.50;111056;1262;14830;-81
2022/09/03 03:11:39;;;;;;;;;2.00;2.00;;;;;23.15;46.28;101498.67;111090;1262;12813;-81
2022/09/03 03:14:06;;;;;;;;;1.67;1.00;;;;;23.15;46.37;101500.31;111104;1262;13190;-82
2022/09/03 03:16:33;;;;;;;;;1.00;1.00;;;;;23.15;46.39;101503.60;111070;1262;13101;-82
2022/09/03 03:19:01;;;;;;;;;1.00;1.00;;;;;23.16;46.29;101506.09;111045;1262;13063;-81
2022/09/03 03:21:28;;;;;;;;;2.00;2.00;;;;;23.16;46.33;101502.67;111032;1262;12740;-82
2022/09/03 03:23:55;;;;;;;;;2.00;2.00;;;;;23.15;46.24;101503.84;111069;1262;13203;-81
2022/09/03 03:26:23;;;;;;;;;1.00;1.00;;;;;23.15;46.46;101508.92;111102;1261;13160;-81
2022/09/03 03:28:50;;;;;;;;;1.00;1.00;;;;;23.15;46.30;101512.86;111009;1262;13074;-81
2022/09/03 03:31:17;;;;;;;;;1.00;1.00;;;;;23.14;46.29;101509.77;111021;1262;14685;-82
2022/09/03 03:33:44;;;;;;;;;1.00;1.00;;;;;23.15;46.29;101514.64;111008;1262;12963;-82
2022/09/03 03:36:12;;;;;;;;;2.00;2.00;;;;;23.16;46.24;101516.83;111004;1262;12784;-81
2022/09/03 03:38:39;;;;;;;;;1.00;1.00;;;;;23.15;46.25;101514.36;111046;1264;13158;-82
2022/09/03 03:41:06;;;;;;;;;1.33;1.33;;;;;23.14;46.22;101513.21;111055;1262;12963;-84
2022/09/03 03:43:34;;;;;;;;;2.00;2.00;;;;;23.14;46.21;101509.56;111020;1262;10605;-81
2022/09/03 03:46:01;;;;;;;;;1.00;1.00;;;;;23.14;46.31;101510.98;111043;1262;12826;-82
2022/09/03 03:48:28;;;;;;;;;1.00;1.00;;;;;23.14;46.21;101511.79;111087;1262;13372;-81
2022/09/03 03:50:56;;;;;;;;;1.00;1.00;;;;;23.13;46.14;101507.31;111100;1262;13230;-83
2022/09/03 03:53:23;;;;;;;;;2.00;2.00;;;;;23.14;46.13;101509.80;111105;1262;13076;-83
2022/09/03 03:55:50;;;;;;;;;2.00;2.00;;;;;23.14;46.02;101506.52;111118;1262;13076;-82
2022/09/03 03:58:17;;;;;;;;;2.00;2.00;;;;;23.14;45.99;101510.38;111058;1262;13109;-81
2022/09/03 04:00:48;;;;;;;;;1.00;1.00;;;;;23.13;45.91;101507.67;111062;1262;15863;-82
2022/09/03 04:03:15;;;;;;;;;1.67;1.00;;;;;23.12;46.07;101507.77;111061;1262;13049;-80
2022/09/03 04:05:43;;;;;;;;;1.33;1.33;;;;;23.12;46.01;101507.42;111063;1263;13035;-81
2022/09/03 04:08:10;;;;;;;;;1.00;1.00;;;;;23.11;46.08;101506.40;111046;1262;14916;-81
2022/09/03 04:10:38;;;;;;;;;1.00;1.00;;;;;23.11;46.01;101505.69;111094;1262;13004;-83
2022/09/03 04:13:05;;;;;;;;;1.00;1.00;;;;;23.11;45.95;101508.08;110905;1261;13154;-83
2022/09/03 04:15:33;;;;;;;;;2.00;2.00;;;;;23.13;45.97;101511.70;110904;1261;13183;-83
2022/09/03 04:18:00;;;;;;;;;1.33;1.33;;;;;23.13;45.93;101511.56;111065;1262;13156;-80
2022/09/03 04:20:27;;;;;;;;;1.33;1.33;;;;;23.13;45.90;101512.57;111104;1262;13037;-83
2022/09/03 04:22:55;;;;;;;;;1.00;1.00;;;;;23.13;45.93;101517.89;111073;1262;12627;-80
2022/09/03 04:25:22;;;;;;;;;1.00;1.00;;;;;23.12;45.90;101516.52;111054;1262;12954;-82
2022/09/03 04:27:51;;;;;;;;;1.00;1.00;;;;;23.12;45.91;101516.35;111060;1262;13179;-81
2022/09/03 04:30:18;;;;;;;;;1.00;1.00;;;;;23.14;45.78;101519.56;110992;1262;13196;-82
2022/09/03 04:32:55;;;;;;;;;1.67;1.67;;;;;23.14;45.90;101515.02;111017;1263;12862;-82
2022/09/03 04:35:22;;;;;;;;;1.00;1.00;;;;;23.15;45.86;101514.61;111071;1262;12799;-82
2022/09/03 04:37:49;;;;;;;;;1.67;1.67;;;;;23.13;45.87;101512.57;111060;1262;13122;-82
2022/09/03 04:40:16;;;;;;;;;1.00;1.00;;;;;23.13;45.82;101518.83;110921;1262;11879;-82
2022/09/03 04:42:44;;;;;;;;;1.67;1.67;;;;;23.13;45.88;101519.02;110918;1262;13128;-82
2022/09/03 04:45:17;;;;;;;;;2.00;2.00;;;;;23.13;45.81;101516.22;110879;1262;12639;-84
2022/09/03 04:47:45;;;;;;;;;2.00;1.33;;;;;23.15;45.78;101513.27;111099;1262;13092;-82
2022/09/03 04:50:13;;;;;;;;;2.67;2.00;;;;;23.15;45.83;101512.01;111114;1262;12707;-81
2022/09/03 04:52:40;;;;;;;;;1.00;1.00;;;;;23.15;45.84;101517.07;111035;1262;13620;-80
2022/09/03 04:55:09;;;;;;;;;2.00;2.00;;;;;23.15;45.68;101522.20;111018;1262;13088;-83
2022/09/03 04:57:37;;;;;;;;;1.00;1.00;;;;;23.16;45.81;101523.90;111005;1262;13197;-81
2022/09/03 05:00:04;;;;;;;;;1.00;1.00;;;;;23.16;45.80;101515.65;111079;1262;12848;-82
2022/09/03 05:02:32;;;;;;;;;1.33;1.33;;;;;23.16;45.74;101512.20;111062;1262;13120;-82
2022/09/03 05:04:59;;;;;;;;;2.00;2.00;;;;;23.19;45.67;101513.95;111020;1262;13172;-80
2022/09/03 05:07:28;;;;;;;;;1.00;1.00;;;;;23.21;45.51;101513.73;111043;1261;13223;-83
2022/09/03 05:09:57;;;;;;;;;2.00;2.00;;;;;23.24;45.46;101516.84;111057;1262;13148;-82
2022/09/03 05:12:24;;;;;;;;;1.00;1.00;;;;;23.26;45.34;101521.63;111014;1262;14850;-81
2022/09/03 05:14:52;;;;;;;;;2.00;2.00;;;;;23.28;45.34;101522.09;111061;1262;12598;-81
2022/09/03 05:17:19;;;;;;;;;1.00;1.00;;;;;23.29;45.32;101520.48;108861;1261;2841892;-82
2022/09/03 05:19:46;;;;;;;;;2.00;2.00;;;;;23.30;45.21;101520.42;111061;1262;17085;-82
2022/09/03 05:22:20;;;;;;;;;1.00;1.00;;;;;23.30;45.16;101523.77;111076;1262;13770;-81
2022/09/03 05:24:47;;;;;;;;;2.00;2.00;;;;;23.33;45.08;101527.08;111014;1262;13113;-82
2022/09/03 05:27:15;;;;;;;;;2.00;2.00;;;;;23.34;45.01;101527.73;111071;1261;12655;-82
2022/09/03 05:29:43;;;;;;;;;2.00;2.00;;;;;23.36;45.02;101529.73;111100;1261;12832;-82
2022/09/03 05:32:11;;;;;;;;;1.00;1.00;;;;;23.38;44.94;101532.07;111080;1262;13266;-81
2022/09/03 05:34:38;;;;;;;;;1.00;1.00;;;;;23.36;44.94;101532.20;111037;1262;13107;-82
2022/09/03 05:37:06;;;;;;;;;2.00;2.00;;;;;23.38;44.88;101534.80;111043;1262;13213;-83
2022/09/03 05:39:33;;;;;;;;;1.33;1.33;;;;;23.40;44.88;101533.75;111006;1262;12619;-83
2022/09/03 05:42:00;;;;;;;;;1.00;1.00;;;;;23.41;44.83;101533.17;111095;1262;13217;-83
2022/09/03 05:44:28;;;;;;;;;2.00;2.00;;;;;23.40;44.79;101535.02;111046;1262;12967;-81
2022/09/03 05:46:55;;;;;;;;;1.00;1.00;;;;;23.40;44.95;101539.60;111077;1262;12888;-81
2022/09/03 05:49:22;;;;;;;;;1.00;1.00;;;;;23.42;44.94;101543.44;111035;1262;13155;-83
2022/09/03 05:51:50;;;;;;;;;1.00;1.00;;;;;23.44;44.98;101538.81;111009;1262;12974;-82
2022/09/03 05:54:17;;;;;;;;;1.00;1.00;;;;;23.47;44.96;101540.30;111021;1262;13269;-81
2022/09/03 05:56:45;;;;;;;;;1.00;1.00;;;;;23.49;45.03;101536.40;111071;1262;13105;-80
2022/09/03 05:59:12;;;;;;;;;2.00;2.00;;;;;23.52;45.07;101537.02;111048;1262;13007;-83
2022/09/03 06:01:39;;;;;;;;;1.00;1.00;;;;;23.56;45.12;101540.73;111019;1262;12975;-82
2022/09/03 06:04:07;;;;;;;;;1.33;1.33;;;;;23.59;45.16;101540.73;111077;1261;13081;-83
2022/09/03 06:06:34;;;;;;;;;2.00;2.00;;;;;23.56;44.94;101545.30;110991;1262;12877;-79
2022/09/03 06:09:02;;;;;;;;;2.00;2.00;;;;;23.23;44.42;101546.30;111017;1262;12761;-81
2022/09/03 06:11:29;;;;;;;;;2.33;2.00;;;;;22.90;44.03;101544.94;111183;1262;12992;-85
2022/09/03 06:13:56;;;;;;;;;2.00;2.00;;;;;22.63;44.24;101545.49;111534;1262;12156;-82
2022/09/03 06:16:24;;;;;;;;;2.33;2.33;;;;;22.64;43.91;101549.23;111164;1261;12908;-83
2022/09/03 06:18:52;;;;;;;;;2.00;2.00;;;;;22.64;43.80;101551.83;111054;1262;13190;-83
2022/09/03 06:21:19;;;;;;;;;2.00;2.00;;;;;22.73;43.26;101555.17;111064;1262;13069;-82
2022/09/03 06:23:47;;;;;;;;;2.00;2.00;;;;;22.61;42.90;101554.14;111029;1263;13212;-83
2022/09/03 06:26:14;;;;;;;;;2.00;2.00;;;;;22.48;42.92;101551.70;111029;1262;13218;-84
2022/09/03 06:28:42;;;;;;;;;1.67;1.67;;;;;22.50;42.86;101550.65;111121;1262;13172;-84
2022/09/03 06:31:09;;;;;;;;;2.00;2.00;;;;;22.57;42.75;101551.86;111056;1262;12952;-84
2022/09/03 06:33:37;;;;;;;;;2.00;2.00;;;;;22.64;42.39;101553.96;111113;1262;12926;-85
2022/09/03 06:36:04;;;;;;;;;2.00;2.00;;;;;22.65;42.32;101557.83;111036;1262;13036;-86
2022/09/03 06:38:32;;;;;;;;;2.00;2.00;;;;;22.72;42.28;101556.44;111144;1261;13230;-84
2022/09/03 06:41:00;;;;;;;;;2.00;2.00;;;;;22.77;42.29;101552.91;111087;1261;13179;-86
2022/09/03 06:43:28;;;;;;;;;2.00;2.00;;;;;22.74;42.24;101557.22;111096;1262;13142;-85
2022/09/03 06:45:55;;;;;;;;;2.00;2.00;;;;;22.75;42.41;101561.91;111092;1261;13016;-85
2022/09/03 06:48:22;;;;;;;;;2.00;2.00;;;;;22.82;42.43;101561.88;111101;1262;13292;-86
2022/09/03 06:50:50;;;;;;;;;2.33;2.00;;;;;22.86;42.53;101562.92;111082;1261;12832;-87
2022/09/03 06:53:17;;;;;;;;;3.00;3.00;;;;;22.54;43.03;101559.64;111065;1262;13126;-86
2022/09/03 06:55:44;;;;;;;;;2.00;2.00;;;;;22.62;43.32;101559.84;111037;1262;13114;-88
2022/09/03 06:58:12;;;;;;;;;2.67;2.00;;;;;22.58;43.54;101559.02;111089;1262;12821;-87
2022/09/03 07:00:39;;;;;;;;;2.33;2.33;;;;;22.45;44.22;101558.36;111083;1262;13407;-86
2022/09/03 07:03:06;;;;;;;;;2.00;2.00;;;;;22.60;44.06;101554.48;111100;1262;15990;-86
2022/09/03 07:05:34;;;;;;;;;2.67;2.00;;;;;22.78;43.79;101553.30;110970;1262;13551;-87
2022/09/03 07:08:01;;;;;;;;;3.00;2.00;;;;;22.80;44.04;101553.52;110999;1262;13050;-86
2022/09/03 07:10:28;;;;;;;;;2.67;2.33;;;;;22.57;44.40;101555.46;111022;1262;12943;-86
2022/09/03 07:12:56;;;;;;;;;2.33;2.33;;;;;22.60;44.68;101552.39;111075;1262;12355;-84
2022/09/03 07:15:23;;;;;;;;;2.00;2.00;;;;;22.69;44.28;101551.48;111067;1262;12926;-85
2022/09/03 07:17:50;;;;;;;;;2.00;2.00;;;;;22.78;44.09;101554.60;111068;1262;16446;-86
2022/09/03 07:20:17;;;;;;;;;2.00;2.00;;;;;22.80;43.78;101547.45;111092;1262;13052;-87
2022/09/03 07:22:45;;;;;;;;;2.00;2.00;;;;;22.84;43.60;101550.37;111030;1262;13129;-85
2022/09/03 07:25:12;;;;;;;;;3.00;3.00;;;;;22.89;43.19;101551.54;111012;1262;13281;-85
2022/09/03 07:27:39;;;;;;;;;2.00;2.00;;;;;22.84;43.14;101553.20;110948;1262;13183;-85
2022/09/03 07:30:09;;;;;;;;;2.00;2.00;;;;;22.85;42.95;101559.70;111039;1262;13122;-87
2022/09/03 07:32:39;;;;;;;;;2.33;2.00;;;;;22.87;42.87;101559.47;111087;1262;13068;-88
2022/09/03 07:35:07;;;;;;;;;2.67;2.00;;;;;22.89;42.60;101560.15;111003;1262;13304;-84
2022/09/03 07:37:35;;;;;;;;;1.33;1.33;;;;;22.89;42.57;101555.30;111045;1262;13191;-86
2022/09/03 07:40:03;;;;;;;;;1.67;1.67;;;;;22.89;42.61;101554.83;111072;1262;12067;-89
2022/09/03 07:42:31;;;;;;;;;2.00;2.00;;;;;22.92;42.33;101552.95;111032;1262;13181;-86
2022/09/03 07:44:59;;;;;;;;;2.00;2.00;;;;;22.92;42.33;101557.11;110968;1262;13141;-84
2022/09/03 07:47:28;;;;;;;;;2.00;2.00;;;;;22.84;42.30;101557.64;111031;1262;13176;-84
2022/09/03 07:49:55;;;;;;;;;3.00;3.00;;;;;22.97;42.34;101550.94;111049;1262;13061;-86
2022/09/03 07:52:23;;;;;;;;;2.00;2.00;;;;;23.08;42.15;101555.44;111112;1262;16457;-87
2022/09/03 07:54:50;;;;;;;;;3.67;3.00;;;;;23.09;42.33;101552.77;110995;1262;13180;-90
2022/09/03 07:57:17;;;;;;;;;2.00;2.00;;;;;23.11;42.50;101551.50;110992;1262;12771;-86
2022/09/03 07:59:44;;;;;;;;;2.67;2.67;;;;;23.05;42.07;101549.80;111119;1262;13063;-89
2022/09/03 08:02:12;;;;;;;;;2.00;2.00;;;;;22.98;41.87;101548.05;111016;1260;13237;-83
2022/09/03 08:04:40;;;;;;;;;2.00;2.00;;;;;22.98;41.91;101549.88;111063;1261;12971;-84
2022/09/03 08:07:07;;;;;;;;;2.00;2.00;;;;;23.11;41.82;101554.44;111066;1261;13109;-83
2022/09/03 08:09:34;;;;;;;;;2.33;2.33;;;;;23.18;41.39;101556.17;111074;1262;13165;-82
2022/09/03 08:12:01;;;;;;;;;4.33;3.00;;;;;23.10;41.36;101558.91;111054;1262;12722;-82
2022/09/03 08:14:30;;;;;;;;;2.00;2.00;;;;;23.10;41.25;101563.84;111051;1262;12927;-81
2022/09/03 08:16:58;;;;;;;;;4.33;3.00;;;;;23.17;41.29;101565.91;111033;1262;13233;-83
2022/09/03 08:19:26;;;;;;;;;2.00;2.00;;;;;23.25;41.16;101570.00;111010;1262;13075;-87
2022/09/03 08:21:53;;;;;;;;;2.00;2.00;;;;;23.26;41.16;101564.54;111001;1262;13012;-83
2022/09/03 08:24:23;;;;;;;;;2.00;2.00;;;;;23.24;41.50;101567.44;111053;1262;12729;-84
2022/09/03 08:26:50;;;;;;;;;3.00;3.00;;;;;23.28;41.78;101566.24;111012;1262;13176;-82
2022/09/03 08:29:18;;;;;;;;;2.00;2.00;;;;;23.32;41.61;101564.66;111091;1262;12354;-80
2022/09/03 08:31:45;;;;;;;;;2.00;2.00;;;;;23.34;41.65;101557.88;111008;1262;13147;-83
2022/09/03 08:34:13;;;;;;;;;2.00;2.00;;;;;23.38;41.52;101565.40;111119;1262;13107;-83
2022/09/03 08:36:41;;;;;;;;;2.33;2.33;;;;;23.40;41.42;101557.73;111028;1261;12986;-83
2022/09/03 08:39:10;;;;;;;;;2.00;2.00;;;;;23.34;41.31;101562.20;111753;1262;12813;-85
2022/09/03 08:41:37;;;;;;;;;3.00;2.00;;;;;23.33;41.55;101555.73;112214;1262;12801;-87
2022/09/03 08:44:05;;;;;;;;;2.00;2.00;;;;;23.34;41.29;101553.10;111117;1262;12873;-87
2022/09/03 08:46:32;;;;;;;;;3.00;3.00;;;;;23.23;41.12;101548.74;111085;1262;14785;-88
2022/09/03 08:48:59;;;;;;;;;3.00;2.67;;;;;23.17;41.10;101547.34;111114;1262;13220;-82
2022/09/03 08:51:27;;;;;;;;;2.00;2.00;;;;;23.21;41.01;101553.51;111116;1262;14911;-82
2022/09/03 08:53:56;;;;;;;;;3.00;3.00;;;;;23.26;41.06;101553.48;111136;1262;13235;-84
2022/09/03 08:56:23;;;;;;;;;5.00;3.00;;;;;23.23;40.77;101549.42;111108;1261;13168;-82
2022/09/03 08:58:50;;;;;;;;;3.00;3.00;;;;;23.10;40.46;101548.45;111078;1262;13105;-84
2022/09/03 09:01:18;;;;;;;;;5.00;4.33;;;;;23.08;40.47;101549.82;111052;1261;13091;-83
2022/09/03 09:03:45;;;;;;;;;2.00;2.00;;;;;23.18;40.59;101545.58;111050;1262;13046;-89
2022/09/03 09:06:12;;;;;;;;;2.33;2.33;;;;;23.18;40.23;101547.19;111116;1262;13258;-88
2022/09/03 09:08:40;;;;;;;;;2.00;2.00;;;;;23.20;40.31;101544.99;110957;1261;13254;-88
2022/09/03 09:11:07;;;;;;;;;2.00;2.00;;;;;23.12;40.14;101545.30;110981;1262;13195;-86
2022/09/03 09:13:34;;;;;;;;;2.00;2.00;;;;;22.80;40.20;101543.85;111050;1262;13449;-87
2022/09/03 09:16:01;;;;;;;;;2.67;2.67;;;;;22.68;40.48;101544.64;111149;1262;12356;-84
2022/09/03 09:18:29;;;;;;;;;3.00;3.00;;;;;22.84;40.60;101548.66;111082;1261;13508;-85
2022/09/03 09:20:56;;;;;;;;;2.00;2.00;;;;;22.92;40.21;101544.34;110926;1262;12784;-84
2022/09/03 09:23:23;;;;;;;;;2.33;2.00;;;;;22.88;40.15;101545.88;111042;1262;13073;-83
2022/09/03 09:25:51;;;;;;;;;2.00;2.00;;;;;22.95;40.12;101541.98;111067;1262;12774;-84
2022/09/03 09:28:18;;;;;;;;;2.00;2.00;;;;;23.05;40.16;101537.17;111079;1262;16891;-84
2022/09/03 09:30:46;;;;;;;;;2.67;2.67;;;;;23.12;40.16;101538.77;111086;1262;13342;-85
2022/09/03 09:33:13;;;;;;;;;3.00;3.00;;;;;23.13;40.17;101537.75;111104;1262;12853;-90
2022/09/03 09:35:41;;;;;;;;;2.00;2.00;;;;;22.98;40.03;101540.95;111155;1262;12907;-88
2022/09/03 09:38:09;;;;;;;;;3.00;3.00;;;;;22.85;40.06;101533.77;111157;1262;13038;-91
2022/09/03 09:40:37;;;;;;;;;2.67;2.67;;;;;22.88;40.09;101530.80;111288;1262;13076;-90
2022/09/03 09:43:05;;;;;;;;;2.00;2.00;;;;;22.88;39.94;101528.90;111008;1262;12903;-88
2022/09/03 09:45:33;;;;;;;;;5.33;4.67;;;;;22.94;39.98;101524.45;111104;1261;19489;-87
2022/09/03 09:48:00;;;;;;;;;3.00;3.00;;;;;23.04;39.78;101524.39;111124;1262;13179;-84
2022/09/03 09:50:28;;;;;;;;;3.67;3.00;;;;;23.10;39.81;101521.65;111073;1262;13282;-84
2022/09/03 09:52:55;;;;;;;;;3.67;3.67;;;;;23.16;39.56;101517.92;111023;1262;13209;-90
2022/09/03 09:55:22;;;;;;;;;3.00;3.00;;;;;23.12;39.39;101520.31;111209;1261;13167;-89
2022/09/03 09:57:50;;;;;;;;;2.00;2.00;;;;;23.04;39.23;101521.63;111242;1261;13100;-85
2022/09/03 10:00:17;;;;;;;;;2.00;2.00;;;;;23.01;39.31;101518.88;111034;1262;13229;-84
2022/09/03 10:02:44;;;;;;;;;2.33;2.00;;;;;22.95;39.14;101515.42;111035;1262;12904;-84
2022/09/03 10:05:11;;;;;;;;;3.00;3.00;;;;;22.98;39.21;101512.34;111004;1262;12810;-84
2022/09/03 10:07:39;;;;;;;;;3.00;3.00;;;;;23.11;39.09;101518.80;111050;1261;13661;-84
2022/09/03 10:10:06;;;;;;;;;5.33;5.00;;;;;23.14;39.23;101518.64;111080;1262;12984;-88
2022/09/03 10:12:35;;;;;;;;;5.33;5.00;;;;;22.97;39.71;101513.02;111075;1261;13103;-86
2022/09/03 10:15:03;;;;;;;;;5.00;5.00;;;;;22.91;40.15;101514.70;111073;1262;12737;-86
2022/09/03 10:17:30;;;;;;;;;3.00;3.00;;;;;23.05;40.09;101512.06;111086;1262;13166;-85
2022/09/03 10:22:41;;;;;;;;;2.33;2.33;;;;;23.19;39.46;101509.92;111043;1262;12862;-89
2022/09/03 10:25:09;;;;;;;;;5.00;3.00;;;;;23.20;39.62;101506.20;111029;1261;13262;-86
2022/09/03 10:27:36;;;;;;;;;3.00;3.00;;;;;23.23;39.92;101504.95;111045;1261;13330;-87
2022/09/03 10:30:04;;;;;;;;;3.00;3.00;;;;;23.26;40.03;101511.02;111094;1262;13221;-90
2022/09/03 10:32:31;;;;;;;;;3.00;3.00;;;;;23.21;40.11;101507.86;111156;1262;12966;-90
2022/09/03 10:34:59;;;;;;;;;3.00;3.00;;;;;23.20;39.96;101507.80;111182;1262;13540;-91
2022/09/03 10:37:26;;;;;;;;;3.00;3.00;;;;;23.10;39.89;101501.11;111101;1262;17460;-91
2022/09/03 10:39:53;;;;;;;;;3.00;3.00;;;;;22.97;39.91;101497.18;110949;1264;14650;-92
2022/09/03 10:42:21;;;;;;;;;3.00;3.00;;;;;22.93;40.06;101498.47;110921;1262;12764;-84
2022/09/03 10:44:48;;;;;;;;;3.67;3.67;;;;;22.91;39.98;101498.52;111128;1262;13197;-86
2022/09/03 10:47:17;;;;;;;;;2.33;2.33;;;;;22.91;40.06;101494.52;111057;1262;13173;-83
2022/09/03 10:49:44;;;;;;;;;2.33;2.33;;;;;22.94;40.06;101495.34;111068;1262;13196;-83
2022/09/03 10:52:14;;;;;;;;;5.67;3.67;;;;;22.98;39.94;101495.94;111095;1262;12526;-85
2022/09/03 10:54:41;;;;;;;;;2.67;2.00;;;;;22.95;39.77;101490.44;111092;1262;12998;-84
2022/09/03 10:57:09;;;;;;;;;2.33;2.33;;;;;22.96;39.86;101489.21;111043;1262;14267;-87
2022/09/03 10:59:36;;;;;;;;;2.33;2.33;;;;;23.00;39.77;101494.46;111115;1262;13145;-86
2022/09/03 11:02:03;;;;;;;;;3.00;3.00;;;;;22.96;39.70;101487.40;111072;1262;13287;-85
2022/09/03 11:04:30;;;;;;;;;3.00;3.00;;;;;22.95;39.60;101486.38;111261;1262;13225;-85
2022/09/03 11:06:58;;;;;;;;;2.00;2.00;;;;;22.92;39.38;101484.41;111682;1262;14108;-86
2022/09/03 11:09:25;;;;;;;;;3.00;3.00;;;;;22.92;39.27;101484.02;111218;1262;13040;-86
2022/09/03 11:11:52;;;;;;;;;3.00;2.33;;;;;22.94;39.08;101476.09;111060;1264;13063;-86
2022/09/03 11:14:21;;;;;;;;;5.67;3.67;;;;;22.95;38.90;101479.45;111116;1262;13190;-86
2022/09/03 11:16:48;;;;;;;;;5.00;3.00;;;;;22.93;38.97;101473.33;111147;1262;13048;-85
2022/09/03 11:19:16;;;;;;;;;3.00;3.00;;;;;22.89;39.05;101475.66;111091;1262;13183;-85
2022/09/03 11:21:43;;;;;;;;;3.00;3.00;;;;;22.91;39.07;101477.19;111088;1262;13075;-85